createdAt,value
2023-04-15T00:01:46.957Z,54.28
2023-04-15T00:04:13.537Z,53.21
2023-04-15T00:06:40.075Z,53.64
2023-04-15T00:09:06.521Z,53.10
2023-04-15T00:11:33.013Z,53.21
2023-04-15T00:14:00.702Z,53.39
2023-04-15T00:16:27.151Z,53.76
2023-04-15T00:18:53.580Z,53.58
2023-04-15T00:21:20.054Z,53.20
2023-04-15T00:23:49.674Z,53.98
2023-04-15T00:26:16.178Z,54.41
2023-04-15T00:28:42.573Z,53.12
2023-04-15T00:31:09.700Z,53.81
2023-04-15T00:33:36.701Z,54.28
2023-04-15T00:36:03.653Z,54.41
2023-04-15T00:38:30.040Z,54.70
2023-04-15T00:40:56.574Z,54.35
2023-04-15T00:43:23.010Z,54.28
2023-04-15T00:45:50.060Z,54.66
2023-04-15T00:48:16.566Z,54.73
2023-04-15T00:50:42.968Z,54.71
2023-04-15T00:53:09.406Z,54.82
2023-04-15T00:55:36.146Z,54.31
2023-04-15T00:58:02.563Z,54.39
2023-04-15T01:00:30.324Z,54.62
2023-04-15T01:02:57.024Z,54.96
2023-04-15T01:05:23.580Z,54.67
2023-04-15T01:07:50.066Z,55.05
2023-04-15T01:10:16.512Z,55.05
2023-04-15T01:12:43.205Z,55.41
2023-04-15T01:15:10.936Z,55.55
2023-04-15T01:17:37.481Z,55.54
2023-04-15T01:20:05.164Z,56.32
2023-04-15T01:22:31.580Z,56.45
2023-04-15T01:25:09.549Z,56.73
2023-04-15T01:27:36.416Z,55.49
2023-04-15T01:30:05.191Z,56.42
2023-04-15T01:32:31.823Z,56.48
2023-04-15T01:34:58.287Z,56.10
2023-04-15T01:37:24.832Z,56.33
2023-04-15T01:39:51.561Z,55.94
2023-04-15T01:42:17.966Z,56.31
2023-04-15T01:44:44.399Z,56.70
2023-04-15T01:47:10.839Z,56.89
2023-04-15T01:49:37.453Z,56.21
2023-04-15T01:52:03.913Z,55.80
2023-04-15T01:54:30.641Z,55.89
2023-04-15T01:56:57.064Z,56.17
2023-04-15T01:59:23.505Z,56.29
2023-04-15T02:01:49.924Z,55.63
2023-04-15T02:04:16.810Z,55.71
2023-04-15T02:06:43.775Z,56.15
2023-04-15T02:09:10.514Z,55.42
2023-04-15T02:11:37.530Z,55.51
2023-04-15T02:14:07.078Z,55.60
2023-04-15T02:16:33.890Z,55.48
2023-04-15T02:19:00.922Z,56.57
2023-04-15T02:21:27.628Z,56.47
2023-04-15T02:23:54.189Z,56.68
2023-04-15T02:26:20.677Z,57.07
2023-04-15T02:28:47.186Z,56.75
2023-04-15T02:31:13.590Z,57.30
2023-04-15T02:33:40.078Z,57.04
2023-04-15T02:36:07.809Z,56.70
2023-04-15T02:38:34.210Z,58.12
2023-04-15T02:41:00.637Z,57.04
2023-04-15T02:43:27.115Z,57.85
2023-04-15T02:45:53.717Z,58.59
2023-04-15T02:48:20.516Z,57.53
2023-04-15T02:50:47.765Z,57.59
2023-04-15T02:53:14.611Z,57.36
2023-04-15T02:55:41.572Z,58.41
2023-04-15T02:58:08.015Z,59.02
2023-04-15T03:00:34.779Z,60.33
2023-04-15T03:03:03.336Z,59.59
2023-04-15T03:05:29.926Z,59.60
2023-04-15T03:07:56.329Z,60.21
2023-04-15T03:10:22.820Z,60.87
2023-04-15T03:12:49.354Z,61.72
2023-04-15T03:15:16.498Z,60.17
2023-04-15T03:17:42.937Z,61.01
2023-04-15T03:20:10.268Z,61.37
2023-04-15T03:22:36.681Z,60.71
2023-04-15T03:25:03.131Z,61.54
2023-04-15T03:27:29.532Z,61.71
2023-04-15T03:29:56.740Z,61.89
2023-04-15T03:32:23.214Z,62.34
2023-04-15T03:34:49.673Z,61.98
2023-04-15T03:37:16.424Z,62.44
2023-04-15T03:39:42.973Z,62.81
2023-04-15T03:42:09.502Z,62.97
2023-04-15T03:44:36.095Z,62.96
2023-04-15T03:47:02.510Z,63.30
2023-04-15T03:49:28.966Z,63.16
2023-04-15T03:51:55.735Z,63.52
2023-04-15T03:54:22.161Z,63.34
2023-04-15T03:56:48.596Z,63.73
2023-04-15T03:59:15.008Z,64.28
2023-04-15T04:01:41.470Z,64.07
2023-04-15T04:04:08.002Z,63.92
2023-04-15T04:06:34.477Z,63.79
2023-04-15T04:09:01.782Z,63.01
2023-04-15T04:11:28.337Z,63.49
2023-04-15T04:13:54.727Z,64.39
2023-04-15T04:16:21.249Z,65.23
2023-04-15T04:18:47.767Z,63.84
2023-04-15T04:21:14.167Z,65.05
2023-04-15T04:23:40.650Z,64.91
2023-04-15T04:26:07.290Z,63.69
2023-04-15T04:28:35.107Z,63.17
2023-04-15T04:31:01.681Z,64.40
2023-04-15T04:33:28.099Z,64.56
2023-04-15T04:35:54.499Z,64.15
2023-04-15T04:38:20.962Z,64.40
2023-04-15T04:40:47.367Z,64.46
2023-04-15T04:43:14.788Z,65.14
2023-04-15T04:45:41.257Z,64.92
2023-04-15T04:48:08.667Z,65.10
2023-04-15T04:50:35.293Z,65.40
2023-04-15T04:53:01.841Z,65.83
2023-04-15T04:55:28.311Z,65.23
2023-04-15T04:57:54.726Z,65.95
2023-04-15T05:00:21.277Z,65.49
2023-04-15T05:02:47.841Z,64.91
2023-04-15T05:05:14.509Z,65.81
2023-04-15T05:07:41.060Z,65.84
2023-04-15T05:10:08.109Z,65.58
2023-04-15T05:12:34.591Z,65.08
2023-04-15T05:15:01.037Z,65.86
2023-04-15T05:17:27.647Z,65.53
2023-04-15T05:19:54.167Z,65.99
2023-04-15T05:22:20.589Z,66.51
2023-04-15T05:24:46.991Z,65.37
2023-04-15T05:27:13.531Z,65.87
2023-04-15T05:29:39.953Z,66.13
2023-04-15T05:32:06.637Z,65.96
2023-04-15T05:34:33.051Z,65.88
2023-04-15T05:36:59.469Z,66.40
2023-04-15T05:39:26.515Z,65.92
2023-04-15T05:41:53.191Z,66.28
2023-04-15T05:44:19.580Z,65.90
2023-04-15T05:46:46.002Z,66.14
2023-04-15T05:49:12.447Z,66.09
2023-04-15T05:51:38.851Z,65.88
2023-04-15T05:54:05.668Z,65.62
2023-04-15T05:56:32.324Z,64.86
2023-04-15T05:58:58.842Z,65.14
2023-04-15T06:01:26.036Z,65.92
2023-04-15T06:03:52.531Z,64.91
2023-04-15T06:06:19.077Z,65.42
2023-04-15T06:08:46.180Z,64.76
2023-04-15T06:11:12.614Z,65.82
2023-04-15T06:13:38.999Z,65.56
2023-04-15T06:16:05.628Z,65.36
2023-04-15T06:18:32.077Z,66.23
2023-04-15T06:20:58.466Z,65.78
2023-04-15T06:23:26.413Z,65.71
2023-04-15T06:25:54.000Z,64.43
2023-04-15T06:28:20.433Z,64.71
2023-04-15T06:30:46.841Z,64.26
2023-04-15T06:33:13.306Z,64.90
2023-04-15T06:35:40.427Z,64.50
2023-04-15T06:38:07.034Z,64.34
2023-04-15T06:40:33.479Z,63.65
2023-04-15T06:42:59.908Z,63.11
2023-04-15T06:45:26.523Z,63.96
2023-04-15T06:47:53.022Z,63.54
2023-04-15T06:50:19.473Z,63.75
2023-04-15T06:52:46.004Z,62.29
2023-04-15T06:55:12.586Z,63.08
2023-04-15T06:57:39.002Z,63.66
2023-04-15T07:00:05.965Z,63.24
2023-04-15T07:02:32.577Z,62.89
2023-04-15T07:04:59.047Z,63.22
2023-04-15T07:07:25.606Z,64.84
2023-04-15T07:09:53.622Z,63.86
2023-04-15T07:12:20.306Z,63.53
2023-04-15T07:14:46.741Z,63.65
2023-04-15T07:17:13.347Z,62.87
2023-04-15T07:19:39.907Z,64.12
2023-04-15T07:22:06.359Z,64.38
2023-04-15T07:24:32.780Z,62.54
2023-04-15T07:27:00.875Z,62.37
2023-04-15T07:29:27.748Z,61.86
2023-04-15T07:31:55.217Z,61.02
2023-04-15T07:34:31.485Z,62.15
2023-04-15T07:37:02.332Z,61.52
2023-04-15T07:39:32.680Z,60.39
2023-04-15T07:42:02.548Z,60.08
2023-04-15T07:44:31.394Z,59.47
2023-04-15T07:47:01.477Z,59.78
2023-04-15T07:49:31.842Z,59.45
2023-04-15T07:52:01.115Z,61.14
2023-04-15T07:54:28.107Z,61.52
2023-04-15T07:56:57.783Z,60.00
2023-04-15T07:59:25.772Z,60.19
2023-04-15T08:01:55.875Z,60.11
2023-04-15T08:04:25.983Z,59.22
2023-04-15T08:06:58.806Z,60.08
2023-04-15T08:09:26.631Z,59.82
2023-04-15T08:11:53.619Z,60.79
2023-04-15T08:14:25.869Z,62.12
2023-04-15T08:16:55.186Z,62.14
2023-04-15T08:19:21.850Z,63.33
2023-04-15T08:21:48.901Z,61.88
2023-04-15T08:24:15.686Z,62.07
2023-04-15T08:26:42.988Z,61.38
2023-04-15T08:29:12.832Z,61.36
2023-04-15T08:31:44.982Z,60.51
2023-04-15T08:34:12.953Z,61.16
2023-04-15T08:36:42.931Z,59.65
2023-04-15T08:39:18.123Z,60.35
2023-04-15T08:41:55.076Z,60.08
2023-04-15T08:44:26.243Z,60.20
2023-04-15T08:46:56.835Z,60.60
2023-04-15T08:49:29.590Z,60.15
2023-04-15T08:54:31.732Z,59.30
2023-04-15T08:57:02.758Z,58.39
2023-04-15T08:59:40.699Z,59.88
2023-04-15T09:02:15.557Z,58.47
2023-04-15T09:04:45.593Z,60.24
2023-04-15T09:07:17.913Z,59.71
2023-04-15T09:09:53.968Z,59.93
2023-04-15T09:12:23.835Z,59.83
2023-04-15T09:14:53.833Z,59.46
2023-04-15T09:17:21.621Z,61.99
2023-04-15T09:19:51.283Z,61.38
2023-04-15T09:22:17.786Z,60.32
2023-04-15T09:24:44.479Z,60.10
2023-04-15T09:27:11.344Z,61.07
2023-04-15T09:29:37.757Z,59.42
2023-04-15T09:32:13.928Z,59.27
2023-04-15T09:34:40.583Z,59.85
2023-04-15T09:37:08.089Z,58.31
2023-04-15T09:40:02.664Z,59.57
2023-04-15T09:42:29.145Z,59.09
2023-04-15T09:44:55.916Z,59.57
2023-04-15T09:47:32.051Z,58.88
2023-04-15T09:49:59.286Z,60.03
2023-04-15T09:52:26.007Z,60.01
2023-04-15T09:54:53.539Z,59.34
2023-04-15T09:57:19.974Z,58.66
2023-04-15T09:59:46.374Z,58.21
2023-04-15T10:02:12.822Z,58.73
2023-04-15T10:04:40.570Z,58.48
2023-04-15T10:07:08.577Z,59.28
2023-04-15T10:09:36.118Z,60.34
2023-04-15T10:12:04.154Z,60.17
2023-04-15T10:14:33.376Z,57.52
2023-04-15T10:17:01.623Z,57.21
2023-04-15T10:19:28.023Z,58.17
2023-04-15T10:21:54.766Z,58.81
2023-04-15T10:24:21.199Z,59.06
2023-04-15T10:26:47.591Z,58.80
2023-04-15T10:29:14.125Z,59.19
2023-04-15T10:31:40.559Z,58.02
2023-04-15T10:34:07.155Z,57.90
2023-04-15T10:36:33.850Z,56.32
2023-04-15T10:39:00.233Z,57.56
2023-04-15T10:41:31.013Z,57.65
2023-04-15T10:44:01.751Z,57.76
2023-04-15T10:46:39.998Z,56.29
2023-04-15T10:49:16.927Z,55.69
2023-04-15T10:51:48.019Z,54.74
2023-04-15T10:54:14.867Z,55.67
2023-04-15T10:56:48.661Z,54.87
2023-04-15T10:59:16.224Z,55.69
2023-04-15T11:01:57.053Z,56.08
2023-04-15T11:04:51.259Z,53.79
2023-04-15T11:07:39.511Z,56.85
2023-04-15T11:10:18.513Z,56.51
2023-04-15T11:12:45.391Z,56.67
2023-04-15T11:15:25.263Z,55.60
2023-04-15T11:17:51.916Z,55.29
2023-04-15T11:20:18.521Z,54.94
2023-04-15T11:22:48.891Z,57.65
2023-04-15T11:25:26.069Z,58.93
2023-04-15T11:27:54.117Z,58.06
2023-04-15T11:30:25.091Z,57.42
2023-04-15T11:32:52.538Z,58.60
2023-04-15T11:35:19.014Z,57.79
2023-04-15T11:37:45.953Z,57.43
2023-04-15T11:40:13.109Z,56.07
2023-04-15T11:42:49.257Z,57.18
2023-04-15T11:45:16.529Z,56.76
2023-04-15T11:47:43.016Z,58.02
2023-04-15T11:50:22.322Z,58.80
2023-04-15T11:52:59.016Z,57.90
2023-04-15T11:55:25.622Z,57.73
2023-04-15T11:58:30.615Z,57.28
2023-04-15T12:00:57.897Z,55.95
2023-04-15T12:03:28.946Z,57.07
2023-04-15T12:06:21.194Z,57.96
2023-04-15T12:09:06.658Z,56.44
2023-04-15T12:11:37.963Z,56.10
2023-04-15T12:14:22.878Z,58.37
2023-04-15T12:16:58.381Z,60.36
2023-04-15T12:19:26.840Z,57.58
2023-04-15T12:21:58.862Z,58.47
2023-04-15T12:24:26.638Z,57.69
2023-04-15T12:26:54.740Z,57.72
2023-04-15T12:29:24.733Z,60.40
2023-04-15T12:32:04.819Z,58.59
2023-04-15T12:34:36.663Z,57.11
2023-04-15T12:37:04.135Z,59.22
2023-04-15T12:39:32.395Z,57.54
2023-04-15T12:42:00.065Z,58.16
2023-04-15T12:44:27.093Z,59.04
2023-04-15T12:52:58.066Z,58.07
2023-04-15T12:55:36.731Z,61.43
2023-04-15T12:58:03.732Z,61.46
2023-04-15T13:06:14.607Z,60.77
2023-04-15T13:08:58.351Z,58.48
2023-04-15T13:11:50.916Z,61.18
2023-04-15T13:17:12.340Z,62.85
2023-04-15T13:19:55.192Z,60.94
2023-04-15T13:22:44.224Z,62.63
2023-04-15T13:25:32.201Z,61.18
2023-04-15T13:36:26.611Z,60.17
2023-04-15T13:41:40.950Z,61.84
2023-04-15T13:44:38.321Z,61.66
2023-04-15T13:47:16.962Z,62.15
2023-04-15T13:50:07.580Z,62.82
2023-04-15T13:52:40.806Z,61.88
2023-04-15T13:55:23.751Z,61.92
2023-04-15T13:58:12.349Z,62.45
2023-04-15T14:00:38.793Z,62.57
2023-04-15T14:03:05.994Z,59.77
2023-04-15T14:05:38.796Z,60.26
2023-04-15T14:08:09.143Z,61.99
2023-04-15T14:10:35.638Z,61.06
2023-04-15T14:13:02.052Z,61.36
2023-04-15T14:15:28.516Z,60.68
2023-04-15T14:23:11.872Z,61.83
2023-04-15T14:42:02.144Z,62.33
2023-04-15T15:05:54.526Z,63.20
2023-04-15T15:11:10.111Z,62.41
2023-04-15T15:13:39.992Z,62.66
2023-04-15T15:16:06.665Z,62.07
2023-04-15T15:18:33.119Z,62.76
2023-04-15T15:20:59.529Z,61.71
2023-04-15T15:23:25.936Z,62.14
2023-04-15T15:25:52.349Z,61.31
2023-04-15T15:28:18.803Z,62.91
2023-04-15T15:30:45.282Z,61.91
2023-04-15T15:33:11.718Z,62.74
2023-04-15T15:35:38.135Z,61.64
2023-04-15T15:38:04.599Z,61.35
2023-04-15T15:40:31.395Z,61.98
2023-04-15T15:42:57.818Z,62.35
2023-04-15T15:45:24.254Z,62.65
2023-04-15T15:47:50.729Z,60.58
2023-04-15T15:50:17.213Z,61.79
2023-04-15T15:52:43.648Z,62.45
2023-04-15T15:55:10.153Z,61.68
2023-04-15T15:57:36.600Z,62.70
2023-04-15T16:02:59.886Z,62.18
2023-04-15T16:05:19.370Z,62.16
2023-04-15T16:07:45.902Z,62.32
2023-04-15T16:10:13.982Z,62.24
2023-04-15T16:12:41.330Z,61.41
2023-04-15T16:15:09.471Z,63.00
2023-04-15T16:17:35.966Z,61.60
2023-04-15T16:20:05.364Z,62.54
2023-04-15T16:22:33.059Z,62.00
2023-04-15T16:25:00.541Z,61.89
2023-04-15T16:30:17.438Z,61.06
2023-04-15T16:32:43.883Z,63.48
2023-04-15T16:35:11.487Z,63.19
2023-04-15T16:37:37.896Z,64.00
2023-04-15T16:40:05.001Z,62.89
2023-04-15T16:42:31.471Z,63.09
2023-04-15T16:44:57.952Z,63.28
2023-04-15T16:47:24.475Z,63.32
2023-04-15T16:49:51.036Z,64.41
2023-04-15T16:52:17.804Z,64.46
2023-04-15T16:54:44.248Z,64.09
2023-04-15T16:57:10.744Z,64.37
2023-04-15T16:59:37.737Z,64.34
2023-04-15T17:02:04.173Z,64.23
2023-04-15T17:04:30.680Z,63.23
2023-04-15T17:06:57.216Z,64.37
2023-04-15T17:09:23.615Z,64.84
2023-04-15T17:11:50.056Z,64.48
2023-04-15T17:14:16.478Z,64.25
2023-04-15T17:16:43.159Z,64.31
2023-04-15T17:19:09.617Z,65.40
2023-04-15T17:21:36.047Z,64.89
2023-04-15T17:24:02.438Z,65.38
2023-04-15T17:26:28.830Z,65.37
2023-04-15T17:28:55.262Z,66.51
2023-04-15T17:31:21.718Z,66.09
2023-04-15T17:33:56.411Z,66.27
2023-04-15T17:36:32.604Z,65.87
2023-04-15T17:38:59.030Z,66.47
2023-04-15T17:41:25.553Z,66.47
2023-04-15T17:43:51.970Z,66.11
2023-04-15T17:46:19.319Z,66.16
2023-04-15T17:48:46.321Z,66.28
2023-04-15T17:51:13.205Z,66.10
2023-04-15T17:53:39.601Z,67.20
2023-04-15T17:56:06.027Z,66.01
2023-04-15T17:58:32.424Z,65.71
2023-04-15T18:00:58.863Z,65.48
2023-04-15T18:03:26.251Z,66.43
2023-04-15T18:05:52.879Z,66.02
2023-04-15T18:08:19.668Z,65.79
2023-04-15T18:10:46.144Z,66.00
2023-04-15T18:13:12.628Z,66.38
2023-04-15T18:15:39.088Z,65.94
2023-04-15T18:18:05.639Z,66.60
2023-04-15T18:20:33.430Z,66.39
2023-04-15T18:22:59.860Z,66.17
2023-04-15T18:25:26.324Z,66.25
2023-04-15T18:27:53.063Z,67.27
2023-04-15T18:30:19.462Z,66.53
2023-04-15T18:32:46.205Z,66.20
2023-04-15T18:35:13.006Z,67.01
2023-04-15T18:37:39.458Z,67.26
2023-04-15T18:40:07.176Z,66.40
2023-04-15T18:42:33.805Z,67.36
2023-04-15T18:45:00.414Z,66.27
2023-04-15T18:47:27.444Z,66.38
2023-04-15T18:49:55.059Z,66.68
2023-04-15T18:52:23.162Z,67.19
2023-04-15T18:54:49.655Z,67.05
2023-04-15T18:57:23.772Z,66.50
2023-04-15T18:59:57.778Z,66.32
2023-04-15T19:02:24.633Z,66.03
2023-04-15T19:04:51.096Z,66.83
2023-04-15T19:07:17.806Z,67.10
2023-04-15T19:09:44.877Z,66.52
2023-04-15T19:12:11.311Z,66.25
2023-04-15T19:14:37.729Z,66.27
2023-04-15T19:17:05.862Z,65.71
2023-04-15T19:19:32.493Z,66.61
2023-04-15T19:22:01.975Z,66.75
2023-04-15T19:24:29.785Z,67.51
2023-04-15T19:26:57.943Z,66.64
2023-04-15T19:29:24.642Z,66.98
2023-04-15T19:31:51.094Z,66.16
2023-04-15T19:34:17.528Z,66.37
2023-04-15T19:36:44.075Z,66.55
2023-04-15T19:39:10.501Z,67.12
2023-04-15T19:41:38.551Z,66.12
2023-04-15T19:44:05.601Z,66.40
2023-04-15T19:46:32.156Z,66.50
2023-04-15T19:48:59.353Z,65.62
2023-04-15T19:51:26.794Z,66.72
2023-04-15T19:53:53.966Z,66.51
2023-04-15T19:56:21.226Z,66.73
2023-04-15T19:58:52.583Z,67.38
2023-04-15T20:01:20.210Z,66.52
2023-04-15T20:03:46.870Z,66.63
2023-04-15T20:06:14.392Z,66.56
2023-04-15T20:08:40.967Z,66.71
2023-04-15T20:11:08.720Z,66.94
2023-04-15T20:13:35.133Z,67.54
2023-04-15T20:16:02.479Z,67.23
2023-04-15T20:18:28.998Z,66.78
2023-04-15T20:20:55.402Z,67.19
2023-04-15T20:23:21.826Z,67.25
2023-04-15T20:25:48.236Z,67.14
2023-04-15T20:28:15.856Z,67.52
2023-04-15T20:30:43.271Z,67.42
2023-04-15T20:33:09.746Z,67.58
2023-04-15T20:35:36.523Z,67.25
2023-04-15T20:38:04.322Z,67.26
2023-04-15T20:40:33.476Z,67.38
2023-04-15T20:43:00.222Z,66.67
2023-04-15T20:45:27.914Z,67.56
2023-04-15T20:47:55.934Z,67.50
2023-04-15T20:50:22.404Z,67.27
2023-04-15T20:52:48.847Z,67.10
2023-04-15T20:55:15.301Z,67.21
2023-04-15T20:57:41.704Z,67.08
2023-04-15T21:00:10.754Z,67.40
2023-04-15T21:02:37.675Z,66.82
2023-04-15T21:05:04.511Z,67.30
2023-04-15T21:07:30.953Z,66.98
2023-04-15T21:09:57.378Z,67.73
2023-04-15T21:12:23.785Z,67.18
2023-04-15T21:14:50.309Z,67.46
2023-04-15T21:17:16.727Z,67.25
2023-04-15T21:19:43.201Z,66.86
2023-04-15T21:22:09.601Z,67.50
2023-04-15T21:24:36.818Z,67.42
2023-04-15T21:27:03.331Z,66.85
2023-04-15T21:29:29.727Z,67.03
2023-04-15T21:31:56.209Z,67.08
2023-04-15T21:34:22.662Z,67.32
2023-04-15T21:36:49.082Z,66.69
2023-04-15T21:39:15.524Z,66.96
2023-04-15T21:41:42.122Z,67.53
2023-04-15T21:44:08.605Z,67.22
2023-04-15T21:46:35.545Z,67.69
2023-04-15T21:49:02.894Z,67.91
2023-04-15T21:51:29.378Z,68.45
2023-04-15T21:53:55.944Z,68.41
2023-04-15T21:56:24.004Z,68.31
2023-04-15T21:58:51.028Z,68.34
2023-04-15T22:01:17.541Z,69.02
2023-04-15T22:03:44.298Z,69.00
2023-04-15T22:06:11.075Z,69.27
2023-04-15T22:08:48.280Z,69.11
2023-04-15T22:11:30.114Z,68.33
2023-04-15T22:13:57.237Z,68.86
2023-04-15T22:16:25.500Z,67.41
2023-04-15T22:18:52.188Z,68.83
2023-04-15T22:21:18.589Z,68.70
2023-04-15T22:23:47.156Z,68.12
2023-04-15T22:26:13.586Z,68.87
2023-04-15T22:28:40.008Z,68.32
2023-04-15T22:31:06.501Z,68.02
2023-04-15T22:33:33.703Z,68.66
2023-04-15T22:36:00.141Z,68.89
2023-04-15T22:38:26.692Z,68.32
2023-04-15T22:40:53.910Z,68.60
2023-04-15T22:43:20.377Z,68.55
2023-04-15T22:45:50.495Z,68.90
2023-04-15T22:48:17.936Z,68.38
2023-04-15T22:50:44.401Z,67.87
2023-04-15T22:53:10.864Z,67.86
2023-04-15T22:55:37.295Z,68.22
2023-04-15T22:58:03.747Z,67.84
2023-04-15T23:00:30.250Z,68.23
2023-04-15T23:02:56.732Z,67.53
2023-04-15T23:05:23.389Z,67.63
2023-04-15T23:07:49.870Z,67.50
2023-04-15T23:10:16.362Z,67.51
2023-04-15T23:12:42.792Z,67.61
2023-04-15T23:15:09.446Z,67.53
2023-04-15T23:17:35.881Z,67.80
2023-04-15T23:20:02.649Z,68.06
2023-04-15T23:22:29.062Z,68.33
2023-04-15T23:24:55.478Z,67.63
2023-04-15T23:27:22.750Z,68.54
2023-04-15T23:29:49.151Z,68.58
2023-04-15T23:32:15.548Z,68.72
2023-04-15T23:34:42.053Z,68.98
2023-04-15T23:37:08.469Z,68.62
2023-04-15T23:39:34.875Z,68.87
2023-04-15T23:42:01.674Z,69.59
2023-04-15T23:44:28.213Z,68.68
2023-04-15T23:46:54.690Z,69.31
2023-04-15T23:49:21.198Z,68.96
2023-04-15T23:51:47.619Z,69.16
2023-04-15T23:54:14.643Z,69.24
2023-04-15T23:56:41.036Z,68.81
2023-04-15T23:59:34.093Z,68.08
